createdAt,value
2022-12-09T00:04:17.309Z,0.95
2022-12-09T00:09:20.590Z,0.81
2022-12-09T00:14:23.621Z,0.81
2022-12-09T00:19:27.825Z,0.63
2022-12-09T00:24:30.722Z,0.58
2022-12-09T00:29:33.467Z,0.58
2022-12-09T00:34:38.559Z,0.47
2022-12-09T00:39:44.502Z,0.44
2022-12-09T00:44:47.307Z,0.41
2022-12-09T00:49:51.597Z,0.39
2022-12-09T00:54:54.482Z,0.29
2022-12-09T00:59:57.661Z,0.34
2022-12-09T01:05:02.028Z,0.32
2022-12-09T01:10:06.266Z,0.26
2022-12-09T01:15:11.728Z,0.30
2022-12-09T01:20:16.258Z,0.37
2022-12-09T01:25:19.469Z,0.24
2022-12-09T01:30:22.577Z,0.21
2022-12-09T01:35:27.011Z,0.19
2022-12-09T01:40:29.897Z,0.13
2022-12-09T01:45:43.573Z,-0.01
2022-12-09T01:50:52.136Z,-0.01
2022-12-09T01:55:55.772Z,0.04
2022-12-09T02:00:59.076Z,0.00
2022-12-09T02:06:03.352Z,-0.16
2022-12-09T02:11:09.397Z,0.01
2022-12-09T02:16:20.861Z,-0.08
2022-12-09T02:21:28.811Z,-0.03
2022-12-09T02:26:36.962Z,-0.03
2022-12-09T02:32:08.963Z,-0.21
2022-12-09T02:37:17.524Z,-0.13
2022-12-09T02:42:27.758Z,-0.17
2022-12-09T02:47:34.158Z,-0.24
2022-12-09T02:52:39.535Z,-0.33
2022-12-09T02:57:42.729Z,-0.37
2022-12-09T03:02:50.573Z,-0.39
2022-12-09T03:08:00.293Z,-0.43
2022-12-09T03:13:06.942Z,-0.58
2022-12-09T03:18:12.494Z,-0.53
2022-12-09T03:23:17.990Z,-0.54
2022-12-09T03:28:22.973Z,-0.56
2022-12-09T03:33:26.610Z,-0.36
2022-12-09T03:38:34.342Z,-0.23
2022-12-09T03:43:39.418Z,-0.41
2022-12-09T03:48:42.285Z,-0.41
2022-12-09T03:53:50.949Z,-0.26
2022-12-09T03:58:55.488Z,-0.19
2022-12-09T04:03:58.640Z,-0.42
2022-12-09T04:09:03.401Z,-0.52
2022-12-09T04:14:10.404Z,-0.74
2022-12-09T04:19:16.737Z,-0.84
2022-12-09T04:24:20.980Z,-0.81
2022-12-09T04:29:23.874Z,-0.80
2022-12-09T04:34:27.031Z,-1.01
2022-12-09T04:39:31.434Z,-1.09
2022-12-09T04:44:34.316Z,-0.99
2022-12-09T04:49:37.498Z,-1.05
2022-12-09T04:54:41.776Z,-1.08
2022-12-09T04:59:44.680Z,-0.86
2022-12-09T05:04:47.937Z,-0.75
2022-12-09T05:09:53.074Z,-0.66
2022-12-09T05:14:56.320Z,-0.60
2022-12-09T05:19:59.233Z,-0.52
2022-12-09T05:25:03.501Z,-0.68
2022-12-09T05:30:08.007Z,-0.60
2022-12-09T05:35:11.579Z,-0.59
2022-12-09T05:40:17.812Z,-0.51
2022-12-09T05:45:20.826Z,-0.62
2022-12-09T05:50:24.012Z,-0.81
2022-12-09T05:55:28.316Z,-0.85
2022-12-09T06:00:31.418Z,-0.98
2022-12-09T06:05:34.585Z,-0.99
2022-12-09T06:10:41.543Z,-1.17
2022-12-09T06:15:44.715Z,-0.86
2022-12-09T06:20:47.982Z,-0.88
2022-12-09T06:25:52.482Z,-0.97
2022-12-09T06:30:55.635Z,-0.96
2022-12-09T06:36:02.124Z,-1.00
2022-12-09T06:41:08.807Z,-1.16
2022-12-09T06:46:16.134Z,-1.06
2022-12-09T06:51:19.895Z,-1.07
2022-12-09T06:56:24.851Z,-0.93
2022-12-09T07:01:28.604Z,-0.88
2022-12-09T07:06:37.334Z,-1.02
2022-12-09T07:11:42.515Z,-1.26
2022-12-09T07:16:46.073Z,-1.31
2022-12-09T07:21:50.102Z,-1.37
2022-12-09T07:26:54.510Z,-1.12
2022-12-09T07:31:57.895Z,-1.07
2022-12-09T07:37:01.238Z,-1.01
2022-12-09T07:42:06.528Z,-0.97
2022-12-09T07:47:21.336Z,-0.96
2022-12-09T07:52:24.747Z,-1.02
2022-12-09T07:57:29.144Z,-0.90
2022-12-09T08:02:32.443Z,-0.70
2022-12-09T08:07:38.835Z,-0.88
2022-12-09T08:12:48.128Z,-0.75
2022-12-09T08:17:51.086Z,-0.85
2022-12-09T08:22:54.947Z,-0.45
2022-12-09T08:27:59.687Z,-0.24
2022-12-09T08:33:03.370Z,0.03
2022-12-09T08:38:06.614Z,-0.14
2022-12-09T08:43:11.447Z,0.08
2022-12-09T08:48:14.505Z,0.02
2022-12-09T08:53:17.871Z,0.21
2022-12-09T08:58:22.071Z,0.47
2022-12-09T09:03:25.367Z,0.64
2022-12-09T09:08:28.449Z,1.01
2022-12-09T09:13:33.299Z,1.50
2022-12-09T09:18:36.674Z,1.26
2022-12-09T09:23:40.083Z,1.54
2022-12-09T09:28:44.650Z,1.54
2022-12-09T09:33:48.766Z,1.62
2022-12-09T09:38:53.941Z,1.92
2022-12-09T09:43:58.975Z,2.18
2022-12-09T09:49:02.405Z,2.55
2022-12-09T09:54:08.912Z,2.37
2022-12-09T09:59:23.968Z,2.06
2022-12-09T10:04:31.707Z,1.46
2022-12-09T10:09:42.791Z,1.12
2022-12-09T10:14:54.499Z,1.11
2022-12-09T10:20:00.210Z,1.36
2022-12-09T10:25:17.878Z,1.18
2022-12-09T10:30:23.304Z,1.24
2022-12-09T10:35:28.803Z,1.29
2022-12-09T10:40:38.250Z,1.36
2022-12-09T10:51:15.089Z,1.68
2022-12-09T10:56:20.156Z,1.92
2022-12-09T11:01:24.628Z,1.80
2022-12-09T11:06:41.754Z,2.05
2022-12-09T11:11:46.515Z,2.04
2022-12-09T11:16:56.231Z,2.37
2022-12-09T11:22:16.088Z,2.14
2022-12-09T11:27:28.900Z,2.20
2022-12-09T11:32:33.350Z,1.80
2022-12-09T11:37:42.473Z,1.98
2022-12-09T11:42:50.478Z,2.32
2022-12-09T11:53:29.398Z,1.86
2022-12-09T11:58:37.985Z,1.91
2022-12-09T12:03:47.332Z,2.12
2022-12-09T12:08:52.769Z,2.17
2022-12-09T12:14:01.815Z,2.17
2022-12-09T12:19:13.392Z,2.26
2022-12-09T12:24:45.594Z,2.63
2022-12-09T12:29:54.930Z,2.98
2022-12-09T12:35:11.744Z,2.69
2022-12-09T12:40:26.831Z,2.53
2022-12-09T12:45:54.795Z,2.48
2022-12-09T12:56:40.901Z,2.54
2022-12-09T13:01:52.162Z,2.67
2022-12-09T13:07:01.787Z,2.64
2022-12-09T13:12:10.616Z,2.62
2022-12-09T13:17:14.718Z,2.81
2022-12-09T13:22:21.804Z,2.74
2022-12-09T13:27:31.475Z,2.88
2022-12-09T13:32:50.679Z,2.89
2022-12-09T13:38:01.524Z,2.99
2022-12-09T13:43:13.565Z,2.91
2022-12-09T13:48:41.833Z,2.90
2022-12-09T13:53:50.510Z,2.78
2022-12-09T13:59:31.928Z,2.68
2022-12-09T14:04:36.494Z,2.65
2022-12-09T14:09:48.363Z,2.83
2022-12-09T14:14:52.749Z,2.86
2022-12-09T14:20:02.654Z,2.55
2022-12-09T14:25:51.192Z,2.55
2022-12-09T14:31:08.063Z,2.38
2022-12-09T14:36:24.567Z,2.24
2022-12-09T14:41:32.375Z,2.12
2022-12-09T14:46:37.075Z,2.03
2022-12-09T14:51:44.139Z,1.94
2022-12-09T14:56:51.435Z,1.69
2022-12-09T15:01:57.148Z,1.58
2022-12-09T15:07:10.955Z,1.49
2022-12-09T15:12:15.281Z,1.31
2022-12-09T15:17:24.366Z,1.28
2022-12-09T15:22:30.552Z,1.14
2022-12-09T15:27:34.854Z,0.94
2022-12-09T15:32:39.989Z,0.71
2022-12-09T15:37:42.934Z,0.62
2022-12-09T15:42:48.657Z,0.57
2022-12-09T15:47:54.535Z,0.56
2022-12-09T15:53:01.112Z,0.47
2022-12-09T15:58:08.049Z,0.41
2022-12-09T16:03:11.081Z,0.44
2022-12-09T16:08:13.984Z,0.35
2022-12-09T16:13:21.186Z,0.35
2022-12-09T16:18:25.633Z,0.25
2022-12-09T16:23:28.679Z,0.31
2022-12-09T16:28:33.026Z,0.30
2022-12-09T16:33:39.523Z,0.17
2022-12-09T16:38:44.340Z,0.20
2022-12-09T16:43:57.189Z,0.42
2022-12-09T16:49:05.029Z,0.48
2022-12-09T16:54:20.245Z,0.67
2022-12-09T16:59:28.960Z,0.53
2022-12-09T17:04:36.992Z,0.45
2022-12-09T17:09:39.775Z,0.53
2022-12-09T17:14:44.123Z,0.51
2022-12-09T17:19:47.207Z,0.35
2022-12-09T17:24:50.293Z,0.42
2022-12-09T17:29:54.485Z,0.26
2022-12-09T17:34:57.312Z,0.21
2022-12-09T17:40:03.501Z,0.47
2022-12-09T17:45:10.303Z,0.51
2022-12-09T17:50:13.290Z,0.52
2022-12-09T17:55:16.170Z,0.50
2022-12-09T18:00:20.928Z,0.61
2022-12-09T18:05:23.750Z,0.54
2022-12-09T18:10:26.586Z,0.67
2022-12-09T18:15:30.756Z,0.52
2022-12-09T18:20:34.211Z,0.57
2022-12-09T18:25:39.742Z,0.61
2022-12-09T18:30:44.037Z,0.69
2022-12-09T18:35:47.190Z,0.78
2022-12-09T18:41:02.234Z,0.70
2022-12-09T18:46:08.734Z,0.60
2022-12-09T18:51:16.542Z,0.57
2022-12-09T18:56:19.431Z,0.73
2022-12-09T19:01:25.469Z,0.79
2022-12-09T19:06:31.616Z,0.92
2022-12-09T19:11:35.553Z,0.87
2022-12-09T19:16:39.881Z,0.68
2022-12-09T19:21:43.233Z,0.48
2022-12-09T19:26:46.191Z,0.49
2022-12-09T19:31:51.264Z,0.50
2022-12-09T19:36:56.073Z,0.46
2022-12-09T19:41:59.750Z,0.65
2022-12-09T19:47:04.134Z,0.60
2022-12-09T19:52:07.015Z,0.28
2022-12-09T19:57:10.623Z,0.28
2022-12-09T20:02:15.321Z,0.30
2022-12-09T20:07:18.341Z,0.39
2022-12-09T20:12:21.406Z,0.34
2022-12-09T20:17:25.586Z,0.34
2022-12-09T20:22:29.604Z,0.22
2022-12-09T20:27:32.459Z,0.22
2022-12-09T20:32:36.681Z,0.26
2022-12-09T20:37:39.557Z,0.29
2022-12-09T20:42:42.439Z,0.27
2022-12-09T20:47:46.674Z,0.26
2022-12-09T20:52:49.550Z,0.25
2022-12-09T20:57:52.346Z,0.23
2022-12-09T21:02:56.548Z,0.18
2022-12-09T21:07:59.445Z,0.14
2022-12-09T21:13:02.585Z,0.04
2022-12-09T21:18:06.953Z,-0.01
2022-12-09T21:23:32.734Z,0.24
2022-12-09T21:28:32.793Z,0.22
2022-12-09T21:33:37.408Z,0.17
2022-12-09T21:38:40.661Z,0.08
2022-12-09T21:43:43.713Z,0.03
2022-12-09T21:48:52.088Z,-0.08
2022-12-09T21:53:56.015Z,-0.05
2022-12-09T21:58:59.624Z,-0.08
2022-12-09T22:04:05.908Z,-0.07
2022-12-09T22:09:09.158Z,-0.16
2022-12-09T22:14:12.169Z,-0.13
2022-12-09T22:19:18.329Z,-0.16
2022-12-09T22:24:21.154Z,-0.19
2022-12-09T22:29:24.132Z,-0.14
2022-12-09T22:34:29.044Z,-0.17
2022-12-09T22:39:31.920Z,-0.19
2022-12-09T22:44:34.746Z,-0.19
2022-12-09T22:49:39.017Z,-0.25
2022-12-09T22:54:41.902Z,-0.20
2022-12-09T22:59:44.768Z,-0.15
2022-12-09T23:04:48.960Z,-0.18
2022-12-09T23:09:51.811Z,-0.16
2022-12-09T23:14:54.724Z,-0.26
2022-12-09T23:19:58.973Z,-0.31
2022-12-09T23:25:01.799Z,-0.25
2022-12-09T23:30:07.099Z,-0.17
2022-12-09T23:35:11.777Z,-0.11
2022-12-09T23:40:14.571Z,-0.07
2022-12-09T23:45:17.597Z,0.02
2022-12-09T23:50:21.892Z,-0.06
2022-12-09T23:55:24.713Z,-0.10
